sensor_id;sensor_type;location;lat;lon;timestamp;P1;durP1;ratioP1;P2;durP2;ratioP2
10851;SDS011;5479;52.046;6.314;2023-03-01T00:01:18;6.73;;;4.30;;
10851;SDS011;5479;52.046;6.314;2023-03-01T00:03:48;7.33;;;4.40;;
10851;SDS011;5479;52.046;6.314;2023-03-01T00:06:16;6.60;;;4.13;;
10851;SDS011;5479;52.046;6.314;2023-03-01T00:08:44;5.90;;;3.97;;
10851;SDS011;5479;52.046;6.314;2023-03-01T00:11:15;6.73;;;4.20;;
10851;SDS011;5479;52.046;6.314;2023-03-01T00:13:45;6.30;;;4.23;;
10851;SDS011;5479;52.046;6.314;2023-03-01T00:16:16;6.73;;;4.30;;
10851;SDS011;5479;52.046;6.314;2023-03-01T00:18:45;6.27;;;4.03;;
10851;SDS011;5479;52.046;6.314;2023-03-01T00:21:13;7.53;;;4.50;;
10851;SDS011;5479;52.046;6.314;2023-03-01T00:23:41;6.67;;;3.70;;
10851;SDS011;5479;52.046;6.314;2023-03-01T00:26:09;6.70;;;4.50;;
10851;SDS011;5479;52.046;6.314;2023-03-01T00:28:39;6.10;;;4.00;;
10851;SDS011;5479;52.046;6.314;2023-03-01T00:31:08;5.77;;;4.07;;
10851;SDS011;5479;52.046;6.314;2023-03-01T00:33:40;6.30;;;4.27;;
10851;SDS011;5479;52.046;6.314;2023-03-01T00:36:08;7.77;;;4.60;;
10851;SDS011;5479;52.046;6.314;2023-03-01T00:38:38;7.03;;;4.40;;
10851;SDS011;5479;52.046;6.314;2023-03-01T00:41:07;6.83;;;4.07;;
10851;SDS011;5479;52.046;6.314;2023-03-01T00:43:39;6.30;;;4.17;;
10851;SDS011;5479;52.046;6.314;2023-03-01T00:46:08;6.90;;;4.50;;
10851;SDS011;5479;52.046;6.314;2023-03-01T00:48:37;6.83;;;4.37;;
10851;SDS011;5479;52.046;6.314;2023-03-01T00:51:08;7.87;;;4.60;;
10851;SDS011;5479;52.046;6.314;2023-03-01T00:53:37;7.27;;;4.77;;
10851;SDS011;5479;52.046;6.314;2023-03-01T00:56:06;6.33;;;4.33;;
10851;SDS011;5479;52.046;6.314;2023-03-01T00:58:35;6.80;;;4.40;;
10851;SDS011;5479;52.046;6.314;2023-03-01T01:01:06;7.10;;;4.27;;
10851;SDS011;5479;52.046;6.314;2023-03-01T01:03:44;6.80;;;4.50;;
10851;SDS011;5479;52.046;6.314;2023-03-01T01:06:15;7.27;;;4.50;;
10851;SDS011;5479;52.046;6.314;2023-03-01T01:08:44;7.03;;;4.27;;
10851;SDS011;5479;52.046;6.314;2023-03-01T01:11:12;7.33;;;4.73;;
10851;SDS011;5479;52.046;6.314;2023-03-01T01:13:41;6.97;;;4.87;;
10851;SDS011;5479;52.046;6.314;2023-03-01T01:16:11;9.37;;;4.60;;
10851;SDS011;5479;52.046;6.314;2023-03-01T01:18:39;7.40;;;4.70;;
10851;SDS011;5479;52.046;6.314;2023-03-01T01:21:07;6.00;;;4.27;;
10851;SDS011;5479;52.046;6.314;2023-03-01T01:23:39;7.27;;;4.80;;
10851;SDS011;5479;52.046;6.314;2023-03-01T01:26:08;6.67;;;4.30;;
10851;SDS011;5479;52.046;6.314;2023-03-01T01:28:37;7.60;;;4.70;;
10851;SDS011;5479;52.046;6.314;2023-03-01T01:31:05;6.43;;;4.60;;
10851;SDS011;5479;52.046;6.314;2023-03-01T01:33:33;6.73;;;4.53;;
10851;SDS011;5479;52.046;6.314;2023-03-01T01:36:01;6.17;;;3.83;;
10851;SDS011;5479;52.046;6.314;2023-03-01T01:38:30;7.07;;;4.67;;
10851;SDS011;5479;52.046;6.314;2023-03-01T01:40:59;6.87;;;4.67;;
10851;SDS011;5479;52.046;6.314;2023-03-01T01:43:28;7.17;;;5.03;;
10851;SDS011;5479;52.046;6.314;2023-03-01T01:45:58;7.40;;;4.43;;
10851;SDS011;5479;52.046;6.314;2023-03-01T01:48:28;7.10;;;4.93;;
10851;SDS011;5479;52.046;6.314;2023-03-01T01:51:09;6.40;;;4.47;;
10851;SDS011;5479;52.046;6.314;2023-03-01T01:53:40;6.97;;;4.30;;
10851;SDS011;5479;52.046;6.314;2023-03-01T01:56:11;6.83;;;4.87;;
10851;SDS011;5479;52.046;6.314;2023-03-01T01:58:42;7.63;;;4.77;;
10851;SDS011;5479;52.046;6.314;2023-03-01T02:01:12;7.03;;;5.00;;
10851;SDS011;5479;52.046;6.314;2023-03-01T02:03:40;6.73;;;4.60;;
10851;SDS011;5479;52.046;6.314;2023-03-01T02:06:13;7.60;;;4.50;;
10851;SDS011;5479;52.046;6.314;2023-03-01T02:08:47;7.07;;;4.83;;
10851;SDS011;5479;52.046;6.314;2023-03-01T02:11:18;6.47;;;4.23;;
10851;SDS011;5479;52.046;6.314;2023-03-01T02:13:47;7.13;;;5.00;;
10851;SDS011;5479;52.046;6.314;2023-03-01T02:16:16;8.63;;;5.10;;
10851;SDS011;5479;52.046;6.314;2023-03-01T02:18:47;7.90;;;4.70;;
10851;SDS011;5479;52.046;6.314;2023-03-01T02:21:22;6.93;;;4.70;;
10851;SDS011;5479;52.046;6.314;2023-03-01T02:23:58;7.33;;;4.60;;
10851;SDS011;5479;52.046;6.314;2023-03-01T02:26:34;8.13;;;5.10;;
10851;SDS011;5479;52.046;6.314;2023-03-01T02:29:09;7.40;;;5.03;;
10851;SDS011;5479;52.046;6.314;2023-03-01T02:31:37;6.73;;;4.40;;
10851;SDS011;5479;52.046;6.314;2023-03-01T02:34:12;7.17;;;4.63;;
10851;SDS011;5479;52.046;6.314;2023-03-01T02:36:43;7.00;;;4.83;;
10851;SDS011;5479;52.046;6.314;2023-03-01T02:39:15;7.43;;;4.70;;
10851;SDS011;5479;52.046;6.314;2023-03-01T02:41:46;7.57;;;4.90;;
10851;SDS011;5479;52.046;6.314;2023-03-01T02:44:18;6.60;;;4.37;;
10851;SDS011;5479;52.046;6.314;2023-03-01T02:46:47;6.43;;;4.60;;
10851;SDS011;5479;52.046;6.314;2023-03-01T02:49:21;7.60;;;4.60;;
10851;SDS011;5479;52.046;6.314;2023-03-01T02:54:51;6.50;;;4.60;;
10851;SDS011;5479;52.046;6.314;2023-03-01T02:57:25;7.73;;;4.60;;
10851;SDS011;5479;52.046;6.314;2023-03-01T02:59:57;6.83;;;4.33;;
10851;SDS011;5479;52.046;6.314;2023-03-01T03:02:33;7.73;;;4.37;;
10851;SDS011;5479;52.046;6.314;2023-03-01T03:05:07;7.07;;;4.80;;
10851;SDS011;5479;52.046;6.314;2023-03-01T03:07:38;7.97;;;5.10;;
10851;SDS011;5479;52.046;6.314;2023-03-01T03:10:09;6.63;;;4.63;;
10851;SDS011;5479;52.046;6.314;2023-03-01T03:12:39;7.03;;;4.73;;
10851;SDS011;5479;52.046;6.314;2023-03-01T03:15:10;6.53;;;4.40;;
10851;SDS011;5479;52.046;6.314;2023-03-01T03:17:39;6.93;;;4.70;;
10851;SDS011;5479;52.046;6.314;2023-03-01T03:20:10;7.40;;;4.60;;
10851;SDS011;5479;52.046;6.314;2023-03-01T03:22:45;8.40;;;4.77;;
10851;SDS011;5479;52.046;6.314;2023-03-01T03:25:13;6.77;;;4.80;;
10851;SDS011;5479;52.046;6.314;2023-03-01T03:27:42;6.97;;;5.00;;
10851;SDS011;5479;52.046;6.314;2023-03-01T03:30:13;6.17;;;4.23;;
10851;SDS011;5479;52.046;6.314;2023-03-01T03:32:43;7.13;;;4.63;;
10851;SDS011;5479;52.046;6.314;2023-03-01T03:35:18;8.20;;;4.60;;
10851;SDS011;5479;52.046;6.314;2023-03-01T03:37:47;7.97;;;5.37;;
10851;SDS011;5479;52.046;6.314;2023-03-01T03:40:33;7.30;;;4.70;;
10851;SDS011;5479;52.046;6.314;2023-03-01T03:43:02;8.07;;;5.00;;
10851;SDS011;5479;52.046;6.314;2023-03-01T03:45:32;7.13;;;5.00;;
10851;SDS011;5479;52.046;6.314;2023-03-01T03:48:01;7.10;;;4.90;;
10851;SDS011;5479;52.046;6.314;2023-03-01T03:50:31;9.23;;;4.87;;
10851;SDS011;5479;52.046;6.314;2023-03-01T03:53:00;8.60;;;5.50;;
10851;SDS011;5479;52.046;6.314;2023-03-01T03:55:28;7.47;;;4.87;;
10851;SDS011;5479;52.046;6.314;2023-03-01T03:57:57;7.67;;;5.00;;
10851;SDS011;5479;52.046;6.314;2023-03-01T04:00:28;7.13;;;4.70;;
10851;SDS011;5479;52.046;6.314;2023-03-01T04:02:58;7.10;;;5.03;;
10851;SDS011;5479;52.046;6.314;2023-03-01T04:05:27;7.67;;;4.67;;
10851;SDS011;5479;52.046;6.314;2023-03-01T04:07:56;7.00;;;4.87;;
10851;SDS011;5479;52.046;6.314;2023-03-01T04:10:34;7.73;;;4.93;;
10851;SDS011;5479;52.046;6.314;2023-03-01T04:13:04;6.47;;;4.63;;
10851;SDS011;5479;52.046;6.314;2023-03-01T04:15:33;8.50;;;5.00;;
10851;SDS011;5479;52.046;6.314;2023-03-01T04:18:03;7.77;;;4.90;;
10851;SDS011;5479;52.046;6.314;2023-03-01T04:20:33;6.77;;;4.87;;
10851;SDS011;5479;52.046;6.314;2023-03-01T04:23:03;6.57;;;4.63;;
10851;SDS011;5479;52.046;6.314;2023-03-01T04:25:39;7.40;;;4.50;;
10851;SDS011;5479;52.046;6.314;2023-03-01T04:28:08;7.73;;;4.90;;
10851;SDS011;5479;52.046;6.314;2023-03-01T04:30:37;6.43;;;4.50;;
10851;SDS011;5479;52.046;6.314;2023-03-01T04:33:08;7.63;;;4.50;;
10851;SDS011;5479;52.046;6.314;2023-03-01T04:35:38;8.17;;;5.07;;
10851;SDS011;5479;52.046;6.314;2023-03-01T04:38:06;7.17;;;4.70;;
10851;SDS011;5479;52.046;6.314;2023-03-01T04:40:34;7.23;;;4.93;;
10851;SDS011;5479;52.046;6.314;2023-03-01T04:43:03;6.63;;;4.43;;
10851;SDS011;5479;52.046;6.314;2023-03-01T04:45:32;6.97;;;4.37;;
10851;SDS011;5479;52.046;6.314;2023-03-01T04:48:02;6.00;;;4.20;;
10851;SDS011;5479;52.046;6.314;2023-03-01T04:50:32;6.43;;;4.30;;
10851;SDS011;5479;52.046;6.314;2023-03-01T04:53:01;7.63;;;4.43;;
10851;SDS011;5479;52.046;6.314;2023-03-01T04:55:29;6.30;;;4.20;;
10851;SDS011;5479;52.046;6.314;2023-03-01T04:57:57;6.77;;;4.50;;
10851;SDS011;5479;52.046;6.314;2023-03-01T05:00:25;6.57;;;4.27;;
10851;SDS011;5479;52.046;6.314;2023-03-01T05:02:54;6.57;;;4.37;;
10851;SDS011;5479;52.046;6.314;2023-03-01T05:05:24;8.03;;;4.27;;
10851;SDS011;5479;52.046;6.314;2023-03-01T05:07:55;6.40;;;4.40;;
10851;SDS011;5479;52.046;6.314;2023-03-01T05:10:24;7.27;;;4.40;;
10851;SDS011;5479;52.046;6.314;2023-03-01T05:12:55;6.30;;;4.27;;
10851;SDS011;5479;52.046;6.314;2023-03-01T05:15:24;7.17;;;4.57;;
10851;SDS011;5479;52.046;6.314;2023-03-01T05:17:54;6.93;;;4.43;;
10851;SDS011;5479;52.046;6.314;2023-03-01T05:20:26;9.13;;;4.50;;
10851;SDS011;5479;52.046;6.314;2023-03-01T05:22:57;7.83;;;4.63;;
10851;SDS011;5479;52.046;6.314;2023-03-01T05:25:26;7.10;;;4.67;;
10851;SDS011;5479;52.046;6.314;2023-03-01T05:27:59;6.50;;;4.63;;
10851;SDS011;5479;52.046;6.314;2023-03-01T05:30:30;7.00;;;4.50;;
10851;SDS011;5479;52.046;6.314;2023-03-01T05:32:59;7.20;;;4.77;;
10851;SDS011;5479;52.046;6.314;2023-03-01T05:35:27;6.97;;;4.60;;
10851;SDS011;5479;52.046;6.314;2023-03-01T05:38:00;6.57;;;5.07;;
10851;SDS011;5479;52.046;6.314;2023-03-01T05:40:28;7.17;;;4.87;;
10851;SDS011;5479;52.046;6.314;2023-03-01T05:42:56;7.13;;;4.50;;
10851;SDS011;5479;52.046;6.314;2023-03-01T05:45:25;6.93;;;4.77;;
10851;SDS011;5479;52.046;6.314;2023-03-01T05:47:55;8.67;;;4.53;;
10851;SDS011;5479;52.046;6.314;2023-03-01T05:50:23;6.93;;;5.03;;
10851;SDS011;5479;52.046;6.314;2023-03-01T05:52:56;7.57;;;5.00;;
10851;SDS011;5479;52.046;6.314;2023-03-01T05:55:28;7.13;;;4.63;;
10851;SDS011;5479;52.046;6.314;2023-03-01T05:57:57;7.40;;;4.77;;
10851;SDS011;5479;52.046;6.314;2023-03-01T06:00:28;6.73;;;4.83;;
10851;SDS011;5479;52.046;6.314;2023-03-01T06:02:57;7.40;;;4.90;;
10851;SDS011;5479;52.046;6.314;2023-03-01T06:05:25;7.90;;;4.40;;
10851;SDS011;5479;52.046;6.314;2023-03-01T06:07:54;7.10;;;4.77;;
10851;SDS011;5479;52.046;6.314;2023-03-01T06:10:22;7.47;;;4.93;;
10851;SDS011;5479;52.046;6.314;2023-03-01T06:12:52;9.50;;;5.13;;
10851;SDS011;5479;52.046;6.314;2023-03-01T06:15:21;7.23;;;4.73;;
10851;SDS011;5479;52.046;6.314;2023-03-01T06:17:50;8.07;;;4.80;;
10851;SDS011;5479;52.046;6.314;2023-03-01T06:20:18;6.27;;;4.67;;
10851;SDS011;5479;52.046;6.314;2023-03-01T06:22:48;7.37;;;4.57;;
10851;SDS011;5479;52.046;6.314;2023-03-01T06:25:17;7.67;;;4.80;;
10851;SDS011;5479;52.046;6.314;2023-03-01T06:27:47;6.63;;;4.63;;
10851;SDS011;5479;52.046;6.314;2023-03-01T06:30:17;8.93;;;4.73;;
10851;SDS011;5479;52.046;6.314;2023-03-01T06:32:46;9.10;;;4.83;;
10851;SDS011;5479;52.046;6.314;2023-03-01T06:35:15;6.50;;;4.43;;
10851;SDS011;5479;52.046;6.314;2023-03-01T06:37:44;7.67;;;5.13;;
10851;SDS011;5479;52.046;6.314;2023-03-01T06:40:13;8.30;;;5.00;;
10851;SDS011;5479;52.046;6.314;2023-03-01T06:42:43;6.90;;;4.80;;
10851;SDS011;5479;52.046;6.314;2023-03-01T06:45:18;6.43;;;4.60;;
10851;SDS011;5479;52.046;6.314;2023-03-01T06:47:47;7.30;;;4.70;;
10851;SDS011;5479;52.046;6.314;2023-03-01T06:50:15;7.30;;;5.10;;
10851;SDS011;5479;52.046;6.314;2023-03-01T06:52:44;8.20;;;5.00;;
10851;SDS011;5479;52.046;6.314;2023-03-01T06:55:12;8.90;;;5.03;;
10851;SDS011;5479;52.046;6.314;2023-03-01T06:57:41;7.93;;;5.60;;
10851;SDS011;5479;52.046;6.314;2023-03-01T07:00:09;6.97;;;5.10;;
10851;SDS011;5479;52.046;6.314;2023-03-01T07:02:39;7.90;;;5.20;;
10851;SDS011;5479;52.046;6.314;2023-03-01T07:05:07;7.87;;;5.07;;
10851;SDS011;5479;52.046;6.314;2023-03-01T07:07:35;6.27;;;4.50;;
10851;SDS011;5479;52.046;6.314;2023-03-01T07:10:04;10.17;;;5.10;;
10851;SDS011;5479;52.046;6.314;2023-03-01T07:12:32;7.50;;;5.20;;
10851;SDS011;5479;52.046;6.314;2023-03-01T07:15:01;6.97;;;5.10;;
10851;SDS011;5479;52.046;6.314;2023-03-01T07:17:31;7.03;;;4.70;;
10851;SDS011;5479;52.046;6.314;2023-03-01T07:20:00;12.17;;;4.87;;
10851;SDS011;5479;52.046;6.314;2023-03-01T07:22:28;8.07;;;5.07;;
10851;SDS011;5479;52.046;6.314;2023-03-01T07:24:56;6.37;;;4.33;;
10851;SDS011;5479;52.046;6.314;2023-03-01T07:27:24;7.53;;;4.70;;
10851;SDS011;5479;52.046;6.314;2023-03-01T07:29:52;6.27;;;4.30;;
10851;SDS011;5479;52.046;6.314;2023-03-01T07:32:20;5.60;;;4.03;;
10851;SDS011;5479;52.046;6.314;2023-03-01T07:34:48;8.10;;;4.50;;
10851;SDS011;5479;52.046;6.314;2023-03-01T07:37:17;5.97;;;4.27;;
10851;SDS011;5479;52.046;6.314;2023-03-01T07:39:45;6.10;;;4.53;;
10851;SDS011;5479;52.046;6.314;2023-03-01T07:42:13;6.73;;;4.77;;
10851;SDS011;5479;52.046;6.314;2023-03-01T07:44:41;6.60;;;4.33;;
10851;SDS011;5479;52.046;6.314;2023-03-01T07:47:12;6.57;;;4.77;;
10851;SDS011;5479;52.046;6.314;2023-03-01T07:49:40;7.37;;;4.90;;
10851;SDS011;5479;52.046;6.314;2023-03-01T07:52:09;7.40;;;4.57;;
10851;SDS011;5479;52.046;6.314;2023-03-01T07:54:42;8.27;;;4.40;;
10851;SDS011;5479;52.046;6.314;2023-03-01T07:57:10;7.10;;;5.17;;
10851;SDS011;5479;52.046;6.314;2023-03-01T07:59:38;8.00;;;5.23;;
10851;SDS011;5479;52.046;6.314;2023-03-01T08:02:07;6.60;;;4.73;;
10851;SDS011;5479;52.046;6.314;2023-03-01T08:04:36;6.63;;;4.70;;
10851;SDS011;5479;52.046;6.314;2023-03-01T08:07:04;6.37;;;4.47;;
10851;SDS011;5479;52.046;6.314;2023-03-01T08:09:34;7.00;;;4.60;;
10851;SDS011;5479;52.046;6.314;2023-03-01T08:12:04;6.80;;;4.63;;
10851;SDS011;5479;52.046;6.314;2023-03-01T08:14:32;7.80;;;4.73;;
10851;SDS011;5479;52.046;6.314;2023-03-01T08:17:00;7.03;;;4.53;;
10851;SDS011;5479;52.046;6.314;2023-03-01T08:19:29;6.50;;;4.70;;
10851;SDS011;5479;52.046;6.314;2023-03-01T08:21:57;6.70;;;4.67;;
10851;SDS011;5479;52.046;6.314;2023-03-01T08:24:26;6.40;;;4.33;;
10851;SDS011;5479;52.046;6.314;2023-03-01T08:26:54;6.07;;;4.40;;
10851;SDS011;5479;52.046;6.314;2023-03-01T08:29:24;6.37;;;4.40;;
10851;SDS011;5479;52.046;6.314;2023-03-01T08:31:52;6.20;;;4.47;;
10851;SDS011;5479;52.046;6.314;2023-03-01T08:34:20;6.90;;;4.60;;
10851;SDS011;5479;52.046;6.314;2023-03-01T08:36:48;6.93;;;4.70;;
10851;SDS011;5479;52.046;6.314;2023-03-01T08:39:18;6.43;;;4.13;;
10851;SDS011;5479;52.046;6.314;2023-03-01T08:41:47;6.53;;;4.50;;
10851;SDS011;5479;52.046;6.314;2023-03-01T08:44:15;8.43;;;4.70;;
10851;SDS011;5479;52.046;6.314;2023-03-01T08:46:45;6.77;;;4.70;;
10851;SDS011;5479;52.046;6.314;2023-03-01T08:49:18;7.57;;;4.47;;
10851;SDS011;5479;52.046;6.314;2023-03-01T08:51:47;6.63;;;4.90;;
10851;SDS011;5479;52.046;6.314;2023-03-01T08:54:16;6.47;;;4.50;;
10851;SDS011;5479;52.046;6.314;2023-03-01T08:56:45;7.30;;;4.33;;
10851;SDS011;5479;52.046;6.314;2023-03-01T08:59:14;5.70;;;4.10;;
10851;SDS011;5479;52.046;6.314;2023-03-01T09:01:45;5.90;;;4.53;;
10851;SDS011;5479;52.046;6.314;2023-03-01T09:04:14;7.00;;;4.70;;
10851;SDS011;5479;52.046;6.314;2023-03-01T09:06:42;6.90;;;4.63;;
10851;SDS011;5479;52.046;6.314;2023-03-01T09:09:12;7.07;;;4.63;;
10851;SDS011;5479;52.046;6.314;2023-03-01T09:11:42;7.33;;;4.50;;
10851;SDS011;5479;52.046;6.314;2023-03-01T09:14:12;6.70;;;4.73;;
10851;SDS011;5479;52.046;6.314;2023-03-01T09:16:41;7.37;;;4.23;;
10851;SDS011;5479;52.046;6.314;2023-03-01T09:19:10;6.43;;;4.10;;
10851;SDS011;5479;52.046;6.314;2023-03-01T09:21:38;5.70;;;4.30;;
10851;SDS011;5479;52.046;6.314;2023-03-01T09:24:06;6.20;;;4.07;;
10851;SDS011;5479;52.046;6.314;2023-03-01T09:26:39;6.40;;;4.53;;
10851;SDS011;5479;52.046;6.314;2023-03-01T09:29:08;7.93;;;4.23;;
10851;SDS011;5479;52.046;6.314;2023-03-01T09:31:36;5.73;;;4.00;;
10851;SDS011;5479;52.046;6.314;2023-03-01T09:34:04;6.27;;;4.20;;
10851;SDS011;5479;52.046;6.314;2023-03-01T09:36:34;6.80;;;4.40;;
10851;SDS011;5479;52.046;6.314;2023-03-01T09:39:02;7.43;;;4.67;;
10851;SDS011;5479;52.046;6.314;2023-03-01T09:41:38;7.00;;;4.80;;
10851;SDS011;5479;52.046;6.314;2023-03-01T09:44:15;5.93;;;4.17;;
10851;SDS011;5479;52.046;6.314;2023-03-01T09:46:48;7.13;;;4.50;;
10851;SDS011;5479;52.046;6.314;2023-03-01T09:49:18;6.47;;;4.50;;
10851;SDS011;5479;52.046;6.314;2023-03-01T09:51:53;7.43;;;4.70;;
10851;SDS011;5479;52.046;6.314;2023-03-01T09:54:23;5.73;;;3.97;;
10851;SDS011;5479;52.046;6.314;2023-03-01T09:57:01;6.37;;;4.20;;
10851;SDS011;5479;52.046;6.314;2023-03-01T09:59:37;7.33;;;5.40;;
10851;SDS011;5479;52.046;6.314;2023-03-01T10:02:21;6.60;;;4.43;;
10851;SDS011;5479;52.046;6.314;2023-03-01T10:04:55;7.27;;;4.10;;
10851;SDS011;5479;52.046;6.314;2023-03-01T10:07:36;6.73;;;4.30;;
10851;SDS011;5479;52.046;6.314;2023-03-01T10:10:23;5.77;;;3.93;;
10851;SDS011;5479;52.046;6.314;2023-03-01T10:12:55;7.30;;;4.00;;
10851;SDS011;5479;52.046;6.314;2023-03-01T10:15:27;5.80;;;3.97;;
10851;SDS011;5479;52.046;6.314;2023-03-01T10:18:03;5.80;;;4.03;;
10851;SDS011;5479;52.046;6.314;2023-03-01T10:20:46;6.03;;;3.93;;
10851;SDS011;5479;52.046;6.314;2023-03-01T10:23:21;5.90;;;3.90;;
10851;SDS011;5479;52.046;6.314;2023-03-01T10:25:54;5.40;;;3.87;;
10851;SDS011;5479;52.046;6.314;2023-03-01T10:28:36;5.97;;;3.83;;
10851;SDS011;5479;52.046;6.314;2023-03-01T10:31:17;5.03;;;3.47;;
10851;SDS011;5479;52.046;6.314;2023-03-01T10:33:48;7.53;;;3.80;;
10851;SDS011;5479;52.046;6.314;2023-03-01T10:36:21;6.30;;;3.73;;
10851;SDS011;5479;52.046;6.314;2023-03-01T10:38:52;5.13;;;3.63;;
10851;SDS011;5479;52.046;6.314;2023-03-01T10:41:21;5.77;;;3.67;;
10851;SDS011;5479;52.046;6.314;2023-03-01T10:43:51;5.67;;;3.47;;
10851;SDS011;5479;52.046;6.314;2023-03-01T10:46:24;5.50;;;3.63;;
10851;SDS011;5479;52.046;6.314;2023-03-01T10:49:05;6.10;;;4.07;;
10851;SDS011;5479;52.046;6.314;2023-03-01T10:51:35;6.47;;;4.00;;
10851;SDS011;5479;52.046;6.314;2023-03-01T10:54:05;5.80;;;3.60;;
10851;SDS011;5479;52.046;6.314;2023-03-01T10:56:47;5.63;;;3.63;;
10851;SDS011;5479;52.046;6.314;2023-03-01T10:59:20;6.67;;;3.73;;
10851;SDS011;5479;52.046;6.314;2023-03-01T11:02:07;6.90;;;4.17;;
10851;SDS011;5479;52.046;6.314;2023-03-01T11:04:55;6.43;;;4.00;;
10851;SDS011;5479;52.046;6.314;2023-03-01T11:07:25;6.63;;;3.90;;
10851;SDS011;5479;52.046;6.314;2023-03-01T11:09:54;8.27;;;4.30;;
10851;SDS011;5479;52.046;6.314;2023-03-01T11:12:22;7.47;;;3.60;;
10851;SDS011;5479;52.046;6.314;2023-03-01T11:14:52;5.97;;;3.57;;
10851;SDS011;5479;52.046;6.314;2023-03-01T11:17:23;5.30;;;3.57;;
10851;SDS011;5479;52.046;6.314;2023-03-01T11:20:02;6.13;;;3.60;;
10851;SDS011;5479;52.046;6.314;2023-03-01T11:22:44;7.30;;;3.63;;
10851;SDS011;5479;52.046;6.314;2023-03-01T11:25:16;5.93;;;3.80;;
10851;SDS011;5479;52.046;6.314;2023-03-01T11:27:47;5.80;;;3.50;;
10851;SDS011;5479;52.046;6.314;2023-03-01T11:30:18;6.00;;;4.10;;
10851;SDS011;5479;52.046;6.314;2023-03-01T11:32:51;6.27;;;4.00;;
10851;SDS011;5479;52.046;6.314;2023-03-01T11:35:28;6.43;;;4.10;;
10851;SDS011;5479;52.046;6.314;2023-03-01T11:38:02;8.40;;;3.90;;
10851;SDS011;5479;52.046;6.314;2023-03-01T11:40:43;6.50;;;3.77;;
10851;SDS011;5479;52.046;6.314;2023-03-01T11:43:19;7.00;;;4.13;;
10851;SDS011;5479;52.046;6.314;2023-03-01T11:45:58;7.70;;;4.03;;
10851;SDS011;5479;52.046;6.314;2023-03-01T11:48:44;5.80;;;3.87;;
10851;SDS011;5479;52.046;6.314;2023-03-01T11:51:23;7.83;;;4.10;;
10851;SDS011;5479;52.046;6.314;2023-03-01T11:54:05;6.67;;;4.27;;
10851;SDS011;5479;52.046;6.314;2023-03-01T11:56:43;6.87;;;4.43;;
10851;SDS011;5479;52.046;6.314;2023-03-01T11:59:20;6.63;;;3.73;;
10851;SDS011;5479;52.046;6.314;2023-03-01T12:02:18;7.47;;;4.17;;
10851;SDS011;5479;52.046;6.314;2023-03-01T12:05:12;5.67;;;3.70;;
10851;SDS011;5479;52.046;6.314;2023-03-01T12:07:52;6.30;;;3.77;;
10851;SDS011;5479;52.046;6.314;2023-03-01T12:10:29;6.53;;;4.20;;
10851;SDS011;5479;52.046;6.314;2023-03-01T12:13:11;5.83;;;3.67;;
10851;SDS011;5479;52.046;6.314;2023-03-01T12:15:57;5.30;;;3.57;;
10851;SDS011;5479;52.046;6.314;2023-03-01T12:18:44;6.00;;;3.90;;
10851;SDS011;5479;52.046;6.314;2023-03-01T12:21:25;6.20;;;3.67;;
10851;SDS011;5479;52.046;6.314;2023-03-01T12:24:06;6.03;;;4.03;;
10851;SDS011;5479;52.046;6.314;2023-03-01T12:26:49;7.90;;;4.33;;
10851;SDS011;5479;52.046;6.314;2023-03-01T12:29:27;8.97;;;4.03;;
10851;SDS011;5479;52.046;6.314;2023-03-01T12:35:04;6.10;;;3.90;;
10851;SDS011;5479;52.046;6.314;2023-03-01T12:37:47;6.43;;;3.77;;
10851;SDS011;5479;52.046;6.314;2023-03-01T12:40:33;7.10;;;4.10;;
10851;SDS011;5479;52.046;6.314;2023-03-01T12:43:24;6.37;;;3.77;;
10851;SDS011;5479;52.046;6.314;2023-03-01T12:46:05;6.03;;;3.77;;
10851;SDS011;5479;52.046;6.314;2023-03-01T12:48:45;7.07;;;4.20;;
10851;SDS011;5479;52.046;6.314;2023-03-01T12:51:23;6.20;;;3.70;;
10851;SDS011;5479;52.046;6.314;2023-03-01T12:53:54;7.57;;;4.40;;
10851;SDS011;5479;52.046;6.314;2023-03-01T12:56:25;5.67;;;3.87;;
10851;SDS011;5479;52.046;6.314;2023-03-01T12:58:58;7.67;;;4.10;;
10851;SDS011;5479;52.046;6.314;2023-03-01T13:01:35;6.07;;;3.83;;
10851;SDS011;5479;52.046;6.314;2023-03-01T13:04:12;6.27;;;4.10;;
10851;SDS011;5479;52.046;6.314;2023-03-01T13:06:57;6.13;;;4.07;;
10851;SDS011;5479;52.046;6.314;2023-03-01T13:09:38;6.30;;;3.90;;
10851;SDS011;5479;52.046;6.314;2023-03-01T13:15:28;7.00;;;3.67;;
10851;SDS011;5479;52.046;6.314;2023-03-01T13:17:59;8.70;;;4.00;;
10851;SDS011;5479;52.046;6.314;2023-03-01T13:20:33;5.87;;;3.40;;
10851;SDS011;5479;52.046;6.314;2023-03-01T13:23:25;6.60;;;3.70;;
10851;SDS011;5479;52.046;6.314;2023-03-01T13:26:03;8.90;;;4.00;;
10851;SDS011;5479;52.046;6.314;2023-03-01T13:28:39;8.43;;;4.30;;
10851;SDS011;5479;52.046;6.314;2023-03-01T13:34:41;6.47;;;3.60;;
10851;SDS011;5479;52.046;6.314;2023-03-01T13:40:24;6.90;;;3.93;;
10851;SDS011;5479;52.046;6.314;2023-03-01T13:43:29;7.13;;;4.37;;
10851;SDS011;5479;52.046;6.314;2023-03-01T13:45:59;5.90;;;3.70;;
10851;SDS011;5479;52.046;6.314;2023-03-01T13:48:29;5.97;;;4.17;;
10851;SDS011;5479;52.046;6.314;2023-03-01T13:51:00;6.03;;;3.90;;
10851;SDS011;5479;52.046;6.314;2023-03-01T13:53:31;7.53;;;4.17;;
10851;SDS011;5479;52.046;6.314;2023-03-01T13:56:06;5.63;;;3.77;;
10851;SDS011;5479;52.046;6.314;2023-03-01T13:58:47;6.87;;;3.73;;
10851;SDS011;5479;52.046;6.314;2023-03-01T14:01:21;7.23;;;3.90;;
10851;SDS011;5479;52.046;6.314;2023-03-01T14:03:54;6.47;;;4.10;;
10851;SDS011;5479;52.046;6.314;2023-03-01T14:06:26;7.23;;;4.10;;
10851;SDS011;5479;52.046;6.314;2023-03-01T14:09:03;8.27;;;4.07;;
10851;SDS011;5479;52.046;6.314;2023-03-01T14:11:43;6.90;;;4.00;;
10851;SDS011;5479;52.046;6.314;2023-03-01T14:14:52;6.03;;;3.90;;
10851;SDS011;5479;52.046;6.314;2023-03-01T14:17:27;5.40;;;3.80;;
10851;SDS011;5479;52.046;6.314;2023-03-01T14:20:14;7.73;;;4.33;;
10851;SDS011;5479;52.046;6.314;2023-03-01T14:22:47;5.93;;;3.90;;
10851;SDS011;5479;52.046;6.314;2023-03-01T14:25:19;6.10;;;3.67;;
10851;SDS011;5479;52.046;6.314;2023-03-01T14:28:00;5.67;;;3.70;;
10851;SDS011;5479;52.046;6.314;2023-03-01T14:30:32;6.53;;;3.80;;
10851;SDS011;5479;52.046;6.314;2023-03-01T14:33:05;6.10;;;3.60;;
10851;SDS011;5479;52.046;6.314;2023-03-01T14:35:51;6.33;;;3.60;;
10851;SDS011;5479;52.046;6.314;2023-03-01T14:38:23;6.37;;;3.60;;
10851;SDS011;5479;52.046;6.314;2023-03-01T14:40:57;5.10;;;3.30;;
10851;SDS011;5479;52.046;6.314;2023-03-01T14:43:28;7.67;;;3.50;;
10851;SDS011;5479;52.046;6.314;2023-03-01T14:45:57;6.53;;;3.57;;
10851;SDS011;5479;52.046;6.314;2023-03-01T14:48:26;5.27;;;3.10;;
10851;SDS011;5479;52.046;6.314;2023-03-01T14:50:55;6.20;;;3.50;;
10851;SDS011;5479;52.046;6.314;2023-03-01T14:53:26;5.90;;;3.20;;
10851;SDS011;5479;52.046;6.314;2023-03-01T14:55:56;5.37;;;3.10;;
10851;SDS011;5479;52.046;6.314;2023-03-01T14:58:28;5.57;;;3.30;;
10851;SDS011;5479;52.046;6.314;2023-03-01T15:01:00;5.00;;;3.30;;
10851;SDS011;5479;52.046;6.314;2023-03-01T15:03:35;4.90;;;2.90;;
10851;SDS011;5479;52.046;6.314;2023-03-01T15:06:07;4.90;;;2.80;;
10851;SDS011;5479;52.046;6.314;2023-03-01T15:08:39;4.47;;;2.87;;
10851;SDS011;5479;52.046;6.314;2023-03-01T15:11:17;4.77;;;2.70;;
10851;SDS011;5479;52.046;6.314;2023-03-01T15:13:49;4.63;;;2.87;;
10851;SDS011;5479;52.046;6.314;2023-03-01T15:16:18;5.13;;;2.90;;
10851;SDS011;5479;52.046;6.314;2023-03-01T15:18:49;4.83;;;2.70;;
10851;SDS011;5479;52.046;6.314;2023-03-01T15:21:20;5.07;;;2.80;;
10851;SDS011;5479;52.046;6.314;2023-03-01T15:23:52;4.67;;;2.60;;
10851;SDS011;5479;52.046;6.314;2023-03-01T15:26:25;6.50;;;2.90;;
10851;SDS011;5479;52.046;6.314;2023-03-01T15:28:57;5.23;;;2.90;;
10851;SDS011;5479;52.046;6.314;2023-03-01T15:31:27;5.30;;;3.10;;
10851;SDS011;5479;52.046;6.314;2023-03-01T15:34:10;5.07;;;3.00;;
10851;SDS011;5479;52.046;6.314;2023-03-01T15:36:50;5.10;;;3.20;;
10851;SDS011;5479;52.046;6.314;2023-03-01T15:45:08;5.93;;;3.00;;
10851;SDS011;5479;52.046;6.314;2023-03-01T15:47:39;5.73;;;3.20;;
10851;SDS011;5479;52.046;6.314;2023-03-01T15:50:11;5.83;;;2.57;;
10851;SDS011;5479;52.046;6.314;2023-03-01T15:52:45;4.73;;;2.20;;